createdAt,value
2019-04-13T00:01:06.208Z,99.90
2019-04-13T00:03:33.344Z,99.90
2019-04-13T00:06:05.525Z,99.90
2019-04-13T00:08:34.605Z,99.90
2019-04-13T00:11:09.445Z,99.90
2019-04-13T00:13:37.145Z,99.90
2019-04-13T00:16:04.345Z,99.90
2019-04-13T00:18:32.826Z,99.90
2019-04-13T00:20:59.984Z,99.90
2019-04-13T00:23:27.345Z,99.90
2019-04-13T00:25:54.685Z,99.90
2019-04-13T00:28:21.847Z,99.90
2019-04-13T00:30:48.965Z,99.90
2019-04-13T00:33:16.245Z,99.90
2019-04-13T00:35:43.380Z,99.90
2019-04-13T00:38:10.946Z,99.90
2019-04-13T00:40:38.085Z,99.90
2019-04-13T00:43:05.245Z,99.90
2019-04-13T00:45:32.405Z,99.90
2019-04-13T00:47:59.644Z,99.90
2019-04-13T00:50:26.944Z,99.90
2019-04-13T00:52:55.312Z,99.90
2019-04-13T00:55:22.646Z,99.90
2019-04-13T00:57:50.485Z,99.90
2019-04-13T01:00:17.947Z,99.90
2019-04-13T01:02:45.284Z,99.90
2019-04-13T01:05:12.412Z,99.90
2019-04-13T01:07:39.584Z,99.90
2019-04-13T01:10:06.729Z,99.90
2019-04-13T01:12:33.905Z,99.90
2019-04-13T01:15:05.546Z,99.90
2019-04-13T01:17:32.925Z,99.90
2019-04-13T01:20:01.485Z,99.90
2019-04-13T01:22:29.044Z,99.90
2019-04-13T01:24:56.285Z,99.90
2019-04-13T01:27:23.441Z,99.90
2019-04-13T01:29:50.564Z,99.90
2019-04-13T01:32:17.747Z,99.90
2019-04-13T01:34:44.984Z,99.90
2019-04-13T01:37:12.392Z,99.90
2019-04-13T01:39:41.024Z,99.90
2019-04-13T01:42:08.385Z,99.90
2019-04-13T01:44:36.866Z,99.90
2019-04-13T01:47:04.246Z,99.90
2019-04-13T01:49:32.805Z,99.90
2019-04-13T01:51:59.965Z,99.90
2019-04-13T01:54:27.105Z,99.90
2019-04-13T01:56:54.444Z,99.90
2019-04-13T01:59:23.344Z,99.90
2019-04-13T02:02:10.565Z,99.90
2019-04-13T02:04:39.905Z,99.90
2019-04-13T02:07:09.285Z,99.90
2019-04-13T02:09:41.124Z,99.90
2019-04-13T02:12:08.364Z,99.90
2019-04-13T02:14:35.644Z,99.90
2019-04-13T02:17:02.965Z,99.90
2019-04-13T02:19:30.129Z,99.90
2019-04-13T02:21:57.369Z,99.90
2019-04-13T02:24:24.504Z,99.90
2019-04-13T02:26:52.145Z,99.90
2019-04-13T02:29:21.130Z,99.90
2019-04-13T02:31:48.326Z,99.90
2019-04-13T02:34:16.874Z,99.90
2019-04-13T02:36:44.066Z,99.90
2019-04-13T02:39:11.304Z,99.90
2019-04-13T02:41:38.566Z,99.90
2019-04-13T02:44:07.265Z,99.90
2019-04-13T02:46:34.388Z,99.90
2019-04-13T02:49:01.647Z,99.90
2019-04-13T02:51:28.785Z,99.90
2019-04-13T02:53:55.945Z,99.90
2019-04-13T02:56:23.705Z,99.90
2019-04-13T02:58:51.005Z,99.90
2019-04-13T03:01:18.345Z,99.90
2019-04-13T03:03:45.564Z,99.90
2019-04-13T03:06:13.165Z,99.90
2019-04-13T03:08:40.285Z,99.90
2019-04-13T03:11:07.432Z,99.90
2019-04-13T03:13:34.587Z,99.90
2019-04-13T03:16:03.705Z,99.90
2019-04-13T03:18:32.845Z,99.90
2019-04-13T03:21:00.124Z,99.90
2019-04-13T03:23:28.905Z,99.90
2019-04-13T03:25:55.985Z,99.90
2019-04-13T03:28:23.065Z,99.90
2019-04-13T03:30:50.470Z,99.90
2019-04-13T03:33:19.327Z,99.90
2019-04-13T03:35:58.531Z,99.90
2019-04-13T03:38:16.647Z,99.90
2019-04-13T03:40:43.744Z,99.90
2019-04-13T03:43:10.985Z,99.90
2019-04-13T03:45:38.145Z,99.90
2019-04-13T03:48:06.426Z,99.90
2019-04-13T03:50:33.664Z,99.90
2019-04-13T03:53:01.024Z,99.90
2019-04-13T03:55:28.164Z,99.90
2019-04-13T03:57:55.905Z,99.90
2019-04-13T04:00:23.244Z,99.90
2019-04-13T04:02:50.425Z,99.90
2019-04-13T04:05:17.525Z,99.90
2019-04-13T04:07:44.624Z,99.90
2019-04-13T04:10:11.794Z,99.90
2019-04-13T04:12:39.129Z,99.90
2019-04-13T04:15:08.585Z,99.90
2019-04-13T04:17:35.685Z,99.90
2019-04-13T04:20:04.889Z,99.90
2019-04-13T04:22:32.125Z,99.90
2019-04-13T04:24:59.284Z,99.90
2019-04-13T04:27:26.424Z,99.90
2019-04-13T04:29:55.005Z,99.90
2019-04-13T04:32:22.125Z,99.90
2019-04-13T04:34:50.945Z,99.90
2019-04-13T04:37:18.128Z,99.90
2019-04-13T04:39:45.244Z,99.90
2019-04-13T04:42:12.387Z,99.90
2019-04-13T04:44:39.751Z,99.90
2019-04-13T04:47:06.904Z,99.90
2019-04-13T04:49:34.145Z,99.90
2019-04-13T04:52:01.289Z,99.90
2019-04-13T04:54:28.645Z,99.90
2019-04-13T04:56:56.851Z,99.90
2019-04-13T04:59:24.065Z,99.90
2019-04-13T05:01:51.866Z,99.90
2019-04-13T05:04:19.105Z,99.90
2019-04-13T05:06:46.348Z,99.90
2019-04-13T05:09:13.627Z,99.90
2019-04-13T05:11:41.164Z,99.90
2019-04-13T05:14:08.405Z,99.90
2019-04-13T05:16:35.544Z,99.90
2019-04-13T05:19:02.725Z,99.90
2019-04-13T05:21:29.844Z,99.90
2019-04-13T05:23:56.927Z,99.90
2019-04-13T05:26:24.064Z,99.90
2019-04-13T05:28:51.165Z,99.90
2019-04-13T05:31:18.466Z,99.90
2019-04-13T05:33:45.625Z,99.90
2019-04-13T05:36:12.665Z,99.90
2019-04-13T05:38:39.785Z,99.90
2019-04-13T05:41:06.847Z,99.90
2019-04-13T05:43:34.039Z,99.90
2019-04-13T05:46:01.119Z,99.90
2019-04-13T05:48:28.279Z,99.90
2019-04-13T05:50:55.727Z,99.90
2019-04-13T05:53:22.881Z,99.90
2019-04-13T05:55:50.048Z,99.90
2019-04-13T05:58:17.569Z,99.90
2019-04-13T06:00:45.068Z,99.90
2019-04-13T06:03:12.168Z,99.90
2019-04-13T06:05:39.315Z,99.90
2019-04-13T06:08:06.496Z,99.90
2019-04-13T06:10:33.647Z,99.90
2019-04-13T06:13:00.826Z,99.90
2019-04-13T06:15:27.965Z,99.90
2019-04-13T06:17:55.185Z,99.90
2019-04-13T06:20:22.273Z,99.90
2019-04-13T06:22:52.110Z,99.90
2019-04-13T06:25:28.822Z,99.90
2019-04-13T06:27:50.695Z,99.90
2019-04-13T06:30:36.286Z,99.90
2019-04-13T06:33:13.851Z,99.90
2019-04-13T06:35:41.236Z,99.90
2019-04-13T06:38:08.252Z,99.90
2019-04-13T06:40:35.366Z,99.90
2019-04-13T06:43:02.532Z,99.90
2019-04-13T06:45:29.972Z,99.90
2019-04-13T06:48:00.178Z,99.90
2019-04-13T06:50:26.147Z,99.90
2019-04-13T06:52:53.366Z,99.90
2019-04-13T06:55:20.948Z,99.90
2019-04-13T06:57:48.568Z,99.90
2019-04-13T07:00:16.462Z,99.90
2019-04-13T07:02:43.830Z,99.90
2019-04-13T07:05:11.189Z,99.90
2019-04-13T07:07:53.407Z,99.90
2019-04-13T07:10:31.024Z,99.90
2019-04-13T07:12:59.367Z,99.90
2019-04-13T07:15:31.639Z,99.90
2019-04-13T07:17:58.727Z,99.90
2019-04-13T07:20:25.787Z,99.90
2019-04-13T07:22:54.195Z,99.90
2019-04-13T07:25:21.768Z,99.90
2019-04-13T07:27:48.828Z,99.90
2019-04-13T07:30:16.054Z,99.90
2019-04-13T07:32:44.407Z,99.90
2019-04-13T07:35:11.848Z,99.90
2019-04-13T07:37:38.990Z,99.90
2019-04-13T07:40:06.349Z,99.90
2019-04-13T07:42:33.588Z,99.90
2019-04-13T07:45:02.472Z,99.90
2019-04-13T07:47:32.588Z,99.90
2019-04-13T07:50:01.465Z,99.90
2019-04-13T07:52:30.361Z,99.90
2019-04-13T07:54:57.559Z,99.90
2019-04-13T07:57:25.073Z,99.90
2019-04-13T07:59:52.133Z,99.90
2019-04-13T08:02:19.334Z,99.90
2019-04-13T08:04:46.673Z,99.90
2019-04-13T08:07:13.857Z,99.90
2019-04-13T08:09:41.034Z,99.90
2019-04-13T08:12:08.154Z,99.90
2019-04-13T08:14:35.295Z,99.90
2019-04-13T08:17:06.523Z,99.90
2019-04-13T08:19:41.296Z,99.90
2019-04-13T08:22:08.460Z,99.90
2019-04-13T08:24:35.898Z,99.90
2019-04-13T08:27:03.257Z,99.90
2019-04-13T08:29:30.453Z,99.90
2019-04-13T08:32:01.690Z,99.90
2019-04-13T08:34:28.936Z,99.90
2019-04-13T08:36:58.013Z,99.90
2019-04-13T08:39:26.974Z,99.90
2019-04-13T08:41:54.476Z,99.90
2019-04-13T08:44:21.620Z,99.90
2019-04-13T08:46:50.197Z,99.90
2019-04-13T08:49:17.574Z,99.90
2019-04-13T08:51:44.897Z,99.90
2019-04-13T08:54:13.374Z,99.90
2019-04-13T08:56:41.749Z,99.90
2019-04-13T08:59:09.752Z,99.70
2019-04-13T09:01:38.620Z,98.60
2019-04-13T09:04:05.777Z,99.50
2019-04-13T09:06:33.334Z,99.90
2019-04-13T09:09:02.784Z,99.90
2019-04-13T09:11:31.030Z,95.50
2019-04-13T09:13:58.520Z,94.40
2019-04-13T09:16:28.857Z,89.70
2019-04-13T09:19:13.652Z,91.50
2019-04-13T09:21:42.013Z,92.60
2019-04-13T09:24:09.894Z,92.10
2019-04-13T09:26:37.238Z,88.90
2019-04-13T09:29:04.954Z,82.10
2019-04-13T09:31:32.174Z,87.30
2019-04-13T09:33:59.334Z,83.70
2019-04-13T09:36:28.711Z,85.10
2019-04-13T09:38:55.634Z,80.10
2019-04-13T09:41:22.893Z,85.90
2019-04-13T09:43:57.705Z,90.20
2019-04-13T09:46:24.373Z,81.40
2019-04-13T09:48:51.753Z,80.30
2019-04-13T09:51:19.293Z,80.90
2019-04-13T09:53:48.572Z,83.90
2019-04-13T09:56:16.854Z,80.90
2019-04-13T09:58:43.934Z,82.60
2019-04-13T10:01:11.114Z,77.60
2019-04-13T10:03:39.428Z,79.00
2019-04-13T10:06:07.178Z,82.10
2019-04-13T10:08:34.316Z,77.50
2019-04-13T10:11:01.395Z,81.90
2019-04-13T10:13:36.114Z,80.10
2019-04-13T10:16:21.193Z,80.50
2019-04-13T10:18:50.274Z,88.70
2019-04-13T10:21:17.415Z,83.10
2019-04-13T10:23:44.515Z,79.80
2019-04-13T10:26:15.690Z,80.60
2019-04-13T10:28:41.834Z,77.50
2019-04-13T10:31:10.418Z,76.40
2019-04-13T10:33:37.574Z,81.60
2019-04-13T10:36:04.833Z,84.10
2019-04-13T10:38:32.054Z,80.40
2019-04-13T10:41:00.553Z,76.80
2019-04-13T10:43:28.057Z,77.30
2019-04-13T10:46:10.912Z,75.70
2019-04-13T10:48:40.022Z,79.40
2019-04-13T10:51:09.039Z,79.60
2019-04-13T10:53:36.158Z,77.00
2019-04-13T10:56:03.297Z,75.50
2019-04-13T10:58:30.337Z,78.30
2019-04-13T11:00:57.538Z,73.20
2019-04-13T11:03:24.718Z,80.00
2019-04-13T11:05:51.798Z,77.40
2019-04-13T11:08:20.202Z,79.80
2019-04-13T11:10:48.018Z,82.60
2019-04-13T11:13:15.137Z,82.80
2019-04-13T11:15:44.328Z,78.00
2019-04-13T11:18:11.459Z,79.70
2019-04-13T11:20:38.638Z,78.50
2019-04-13T11:23:05.877Z,72.90
2019-04-13T11:25:33.097Z,73.40
2019-04-13T11:28:02.273Z,75.70
2019-04-13T11:30:31.197Z,72.20
2019-04-13T11:32:59.358Z,75.70
2019-04-13T11:35:26.457Z,77.60
2019-04-13T11:37:53.558Z,73.40
2019-04-13T11:40:20.958Z,72.00
2019-04-13T11:42:53.839Z,73.30
2019-04-13T11:45:25.720Z,68.10
2019-04-13T11:47:54.617Z,70.00
2019-04-13T11:50:23.518Z,67.90
2019-04-13T11:52:50.777Z,72.00
2019-04-13T11:55:17.901Z,79.20
2019-04-13T11:57:47.253Z,69.20
2019-04-13T12:00:33.659Z,72.00
2019-04-13T12:03:19.117Z,70.50
2019-04-13T12:05:48.297Z,68.40
2019-04-13T12:08:17.177Z,69.60
2019-04-13T12:10:58.256Z,70.70
2019-04-13T12:13:43.837Z,74.20
2019-04-13T12:16:28.236Z,72.80
2019-04-13T12:18:57.296Z,71.70
2019-04-13T12:21:26.376Z,70.10
2019-04-13T12:23:55.376Z,71.30
2019-04-13T12:26:22.795Z,69.20
2019-04-13T12:28:52.121Z,71.80
2019-04-13T12:31:22.206Z,69.20
2019-04-13T12:33:49.295Z,70.70
2019-04-13T12:36:16.535Z,72.90
2019-04-13T12:38:50.017Z,70.40
2019-04-13T12:41:22.294Z,73.00
2019-04-13T12:43:49.873Z,75.90
2019-04-13T12:46:17.016Z,73.20
2019-04-13T12:48:45.695Z,75.50
2019-04-13T12:51:13.155Z,73.80
2019-04-13T12:53:41.335Z,75.20
2019-04-13T12:56:08.715Z,76.50
2019-04-13T12:58:35.835Z,74.50
2019-04-13T13:01:12.453Z,74.30
2019-04-13T13:03:41.416Z,75.70
2019-04-13T13:06:08.167Z,75.50
2019-04-13T13:08:36.900Z,72.30
2019-04-13T13:11:06.115Z,75.00
2019-04-13T13:13:33.474Z,75.60
2019-04-13T13:16:00.994Z,75.80
2019-04-13T13:18:28.574Z,74.80
2019-04-13T13:20:58.027Z,75.30
2019-04-13T13:23:25.354Z,76.10
2019-04-13T13:25:52.874Z,74.60
2019-04-13T13:28:20.034Z,79.60
2019-04-13T13:30:48.351Z,75.00
2019-04-13T13:33:17.864Z,77.60
2019-04-13T13:35:45.075Z,77.20
2019-04-13T13:38:12.173Z,77.60
2019-04-13T13:40:39.359Z,80.40
2019-04-13T13:43:06.576Z,78.60
2019-04-13T13:45:33.922Z,77.20
2019-04-13T13:48:02.051Z,76.40
2019-04-13T13:50:29.676Z,75.40
2019-04-13T13:52:58.036Z,77.10
2019-04-13T13:55:25.139Z,77.50
2019-04-13T13:57:54.116Z,73.80
2019-04-13T14:00:23.177Z,76.70
2019-04-13T14:02:51.496Z,78.50
2019-04-13T14:05:18.895Z,77.20
2019-04-13T14:07:47.541Z,78.00
2019-04-13T14:10:14.926Z,76.30
2019-04-13T14:12:42.727Z,71.10
2019-04-13T14:15:14.423Z,71.40
2019-04-13T14:17:41.660Z,72.30
2019-04-13T14:20:12.566Z,73.60
2019-04-13T14:22:39.587Z,72.90
2019-04-13T14:25:06.834Z,74.40
2019-04-13T14:27:33.878Z,77.60
2019-04-13T14:30:07.880Z,72.80
2019-04-13T14:32:35.910Z,72.50
2019-04-13T14:35:05.860Z,74.70
2019-04-13T14:37:33.308Z,73.60
2019-04-13T14:40:00.552Z,74.70
2019-04-13T14:42:27.757Z,74.30
2019-04-13T14:44:55.585Z,76.70
2019-04-13T14:49:52.932Z,73.20
2019-04-13T14:52:20.154Z,73.80
2019-04-13T14:54:49.944Z,76.10
2019-04-13T14:57:17.975Z,73.40
2019-04-13T14:59:49.306Z,75.60
2019-04-13T15:02:15.565Z,74.50
2019-04-13T15:04:43.285Z,74.30
2019-04-13T15:07:11.606Z,74.60
2019-04-13T15:09:38.905Z,72.90
2019-04-13T15:12:09.311Z,76.60
2019-04-13T15:14:36.767Z,74.80
2019-04-13T15:17:06.421Z,75.70
2019-04-13T15:19:41.475Z,77.40
2019-04-13T15:22:03.591Z,75.40
2019-04-13T15:24:32.810Z,73.70
2019-04-13T15:27:00.814Z,75.60
2019-04-13T15:29:31.505Z,75.20
2019-04-13T15:31:57.403Z,76.30
2019-04-13T15:34:29.060Z,78.80
2019-04-13T15:36:58.378Z,79.60
2019-04-13T15:39:24.689Z,80.80
2019-04-13T15:42:02.138Z,78.70
2019-04-13T15:44:22.044Z,76.90
2019-04-13T15:46:51.526Z,78.30
2019-04-13T15:49:19.739Z,77.20
2019-04-13T15:51:47.725Z,78.90
2019-04-13T15:54:15.017Z,78.00
2019-04-13T15:56:44.284Z,80.10
2019-04-13T15:59:13.022Z,78.00
2019-04-13T16:01:40.932Z,78.00
2019-04-13T16:04:08.066Z,78.50
2019-04-13T16:06:35.855Z,78.70
2019-04-13T16:09:13.954Z,79.20
2019-04-13T16:11:53.765Z,78.30
2019-04-13T16:14:15.896Z,80.40
2019-04-13T16:16:43.650Z,79.10
2019-04-13T16:19:13.482Z,79.60
2019-04-13T16:21:41.103Z,79.40
2019-04-13T16:24:09.233Z,80.80
2019-04-13T16:26:36.409Z,78.30
2019-04-13T16:29:20.743Z,77.90
2019-04-13T16:31:50.766Z,79.10
2019-04-13T16:34:38.686Z,78.10
2019-04-13T16:37:17.038Z,79.20
2019-04-13T16:39:45.523Z,78.10
2019-04-13T16:42:20.192Z,79.20
2019-04-13T16:44:47.026Z,80.70
2019-04-13T16:47:22.298Z,83.20
2019-04-13T16:49:51.359Z,81.50
2019-04-13T16:52:36.638Z,85.00
2019-04-13T16:55:09.055Z,86.70
2019-04-13T16:57:40.321Z,85.90
2019-04-13T17:00:22.265Z,85.50
2019-04-13T17:03:09.706Z,86.40
2019-04-13T17:05:39.762Z,86.90
2019-04-13T17:08:07.694Z,87.20
2019-04-13T17:10:36.204Z,88.10
2019-04-13T17:13:03.664Z,89.10
2019-04-13T17:15:31.251Z,91.00
2019-04-13T17:17:59.418Z,90.80
2019-04-13T17:23:25.250Z,91.20
2019-04-13T17:25:54.305Z,90.50
2019-04-13T17:28:41.567Z,91.00
2019-04-13T17:31:14.149Z,87.30
2019-04-13T17:33:44.075Z,86.60
2019-04-13T17:36:12.639Z,84.70
2019-04-13T17:38:39.965Z,87.30
2019-04-13T17:41:12.953Z,88.90
2019-04-13T17:43:57.346Z,91.70
2019-04-13T17:46:47.506Z,93.10
2019-04-13T17:49:25.702Z,93.20
2019-04-13T17:51:58.375Z,94.90
2019-04-13T17:54:33.405Z,96.40
2019-04-13T17:57:01.255Z,95.50
2019-04-13T17:59:30.604Z,96.20
2019-04-13T18:02:02.663Z,97.10
2019-04-13T18:04:31.568Z,98.90
2019-04-13T18:07:05.212Z,99.10
2019-04-13T18:09:37.187Z,99.00
2019-04-13T18:12:06.234Z,99.30
2019-04-13T18:14:47.197Z,99.60
2019-04-13T18:17:28.115Z,99.20
2019-04-13T18:19:55.181Z,99.90
2019-04-13T18:22:23.024Z,98.80
2019-04-13T18:24:51.261Z,99.10
2019-04-13T18:27:19.502Z,98.80
2019-04-13T18:29:57.178Z,99.70
2019-04-13T18:32:15.650Z,99.90
2019-04-13T18:34:43.896Z,99.90
2019-04-13T18:37:11.613Z,99.90
2019-04-13T18:39:39.036Z,99.90
2019-04-13T18:42:07.568Z,99.90
2019-04-13T18:44:34.850Z,99.60
2019-04-13T18:47:02.342Z,99.90
2019-04-13T18:49:30.536Z,99.90
2019-04-13T18:51:58.542Z,99.90
2019-04-13T18:54:25.927Z,99.90
2019-04-13T18:56:53.009Z,99.80
2019-04-13T18:59:20.142Z,99.90
2019-04-13T19:01:47.392Z,99.90
2019-04-13T19:04:14.501Z,99.90
2019-04-13T19:06:41.740Z,99.90
2019-04-13T19:09:10.667Z,99.90
2019-04-13T19:11:37.727Z,99.90
2019-04-13T19:14:04.867Z,99.90
2019-04-13T19:16:33.368Z,99.90
2019-04-13T19:19:00.767Z,99.90
2019-04-13T19:21:28.284Z,99.90
2019-04-13T19:23:55.510Z,99.90
2019-04-13T19:26:22.727Z,99.90
2019-04-13T19:28:49.828Z,99.90
2019-04-13T19:31:16.927Z,99.90
2019-04-13T19:33:44.287Z,99.90
2019-04-13T19:36:12.867Z,99.90
2019-04-13T19:38:40.348Z,99.90
2019-04-13T19:41:07.579Z,99.90
2019-04-13T19:43:34.872Z,99.90
2019-04-13T19:46:02.169Z,99.90
2019-04-13T19:48:29.447Z,99.90
2019-04-13T19:50:57.807Z,99.90
2019-04-13T19:53:42.048Z,99.90
2019-04-13T19:56:14.288Z,99.90
2019-04-13T19:58:43.547Z,99.90
2019-04-13T20:01:12.529Z,99.90
2019-04-13T20:03:39.608Z,99.90
2019-04-13T20:06:18.254Z,99.90
2019-04-13T20:08:36.862Z,99.90
2019-04-13T20:11:04.072Z,99.90
2019-04-13T20:13:41.516Z,99.90
2019-04-13T20:16:01.659Z,99.90
2019-04-13T20:18:29.048Z,99.90
2019-04-13T20:20:56.447Z,99.90
2019-04-13T20:23:23.768Z,99.90
2019-04-13T20:25:50.941Z,99.90
2019-04-13T20:28:18.435Z,99.90
2019-04-13T20:30:45.721Z,99.90
2019-04-13T20:33:13.251Z,99.90
2019-04-13T20:35:51.471Z,99.90
2019-04-13T20:38:10.908Z,99.90
2019-04-13T20:40:42.435Z,99.90
2019-04-13T20:43:09.710Z,99.90
2019-04-13T20:45:36.875Z,99.90
2019-04-13T20:48:04.532Z,99.90
2019-04-13T20:50:34.116Z,99.90
2019-04-13T20:53:01.515Z,99.90
2019-04-13T20:55:28.697Z,99.90
2019-04-13T20:57:56.651Z,99.90
2019-04-13T21:00:24.692Z,99.90
2019-04-13T21:02:52.610Z,99.90
2019-04-13T21:05:20.980Z,99.90
2019-04-13T21:07:48.814Z,99.90
2019-04-13T21:10:16.459Z,99.90
2019-04-13T21:12:43.779Z,99.90
2019-04-13T21:15:11.789Z,99.90
2019-04-13T21:17:39.739Z,99.90
2019-04-13T21:20:07.735Z,99.90
2019-04-13T21:22:35.683Z,99.90
2019-04-13T21:25:05.622Z,99.90
2019-04-13T21:27:33.571Z,99.90
2019-04-13T21:30:01.200Z,99.90
2019-04-13T21:32:29.720Z,99.90
2019-04-13T21:34:57.199Z,99.90
2019-04-13T21:37:24.853Z,99.90
2019-04-13T21:39:52.736Z,99.90
2019-04-13T21:42:21.138Z,99.90
2019-04-13T21:44:50.995Z,99.90
2019-04-13T21:47:18.780Z,99.90
2019-04-13T21:49:46.937Z,99.90
2019-04-13T21:52:23.943Z,99.90
2019-04-13T21:54:51.813Z,99.90
2019-04-13T21:57:19.848Z,99.90
2019-04-13T21:59:47.678Z,99.90
2019-04-13T22:02:17.855Z,99.90
2019-04-13T22:04:48.556Z,99.90
2019-04-13T22:07:17.947Z,99.90
2019-04-13T22:09:45.730Z,99.90
2019-04-13T22:12:13.304Z,99.90
2019-04-13T22:14:48.152Z,99.90
2019-04-13T22:17:09.999Z,99.90
2019-04-13T22:19:37.584Z,99.90
2019-04-13T22:22:05.596Z,99.90
2019-04-13T22:24:33.169Z,99.90
2019-04-13T22:27:00.959Z,99.90
2019-04-13T22:29:31.278Z,99.90
2019-04-13T22:32:16.839Z,99.90
2019-04-13T22:34:55.146Z,99.90
2019-04-13T22:37:20.989Z,99.90
2019-04-13T22:39:48.876Z,99.90
2019-04-13T22:42:16.596Z,99.90
2019-04-13T22:44:51.062Z,99.90
2019-04-13T22:47:14.639Z,99.90
2019-04-13T22:49:58.519Z,99.90
2019-04-13T22:52:34.559Z,99.90
2019-04-13T22:55:16.508Z,99.90
2019-04-13T22:57:45.780Z,99.90
2019-04-13T23:00:34.371Z,99.90
2019-04-13T23:03:02.578Z,99.90
2019-04-13T23:05:37.163Z,99.90
2019-04-13T23:08:05.276Z,99.90
2019-04-13T23:10:33.306Z,99.90
2019-04-13T23:13:01.495Z,99.90
2019-04-13T23:15:34.429Z,99.90
2019-04-13T23:17:59.539Z,99.90
2019-04-13T23:20:27.783Z,99.90
2019-04-13T23:22:56.212Z,99.90
2019-04-13T23:25:24.979Z,99.90
2019-04-13T23:27:52.747Z,99.90
2019-04-13T23:30:20.492Z,99.90
2019-04-13T23:32:49.300Z,99.90
2019-04-13T23:35:17.005Z,99.90
2019-04-13T23:37:45.291Z,99.90
2019-04-13T23:40:13.694Z,99.90
2019-04-13T23:42:42.079Z,99.90
2019-04-13T23:45:19.426Z,99.90
2019-04-13T23:47:40.519Z,99.90
2019-04-13T23:50:09.006Z,99.90
2019-04-13T23:52:36.875Z,99.90
2019-04-13T23:55:05.403Z,99.90
2019-04-13T23:57:44.336Z,99.90
